Time;durP1;ratioP1;P1;durP2;ratioP2;P2;SDS_P1;SDS_P2;PMS_P1;PMS_P2;Temp;Humidity;BMP_temperature;BMP_pressure;BME280_temperature;BME280_humidity;BME280_pressure;Samples;Min_cycle;Max_cycle;Signal;HPM_P1;HPM_P2
2021/12/21 00:01:05;;;;;;;0.40;0.40;;;0.70;99.90;;;;;;5242424;28;20393;-75
2021/12/21 00:03:36;;;;;;;;;;;0.70;99.90;;;;;;5259905;28;20028;-75
2021/12/21 00:06:12;;;;;;;0.50;0.50;;;0.60;99.90;;;;;;5246689;28;19951;-75
2021/12/21 00:08:48;;;;;;;0.60;0.60;;;0.60;99.90;;;;;;5250140;28;20047;-75
2021/12/21 00:11:24;;;;;;;0.60;0.60;;;0.50;99.90;;;;;;5246094;28;20035;-74
2021/12/21 00:14:12;;;;;;;0.50;0.50;;;0.60;99.90;;;;;;5236151;28;20397;-75
2021/12/21 00:25:01;;;;;;;0.40;0.40;;;0.50;99.90;;;;;;5238489;28;20020;-75
2021/12/21 00:27:31;;;;;;;0.70;0.70;;;0.50;99.90;;;;;;5240937;28;20108;-75
2021/12/21 00:30:17;;;;;;;0.60;0.60;;;0.40;99.90;;;;;;5257931;28;20306;-74
2021/12/21 00:32:48;;;;;;;0.40;0.40;;;0.40;99.90;;;;;;5241590;28;20248;-74
2021/12/21 00:35:19;;;;;;;0.70;0.70;;;0.40;99.90;;;;;;5240869;28;20020;-75
2021/12/21 00:37:50;;;;;;;2.60;1.67;;;0.30;99.90;;;;;;5258711;28;20028;-74
2021/12/21 00:40:21;;;;;;;0.52;0.52;;;0.40;99.90;;;;;;5257544;28;20355;-74
2021/12/21 00:43:10;;;;;;;0.57;0.57;;;0.40;99.90;;;;;;5258246;28;20461;-74
2021/12/21 00:45:42;;;;;;;0.40;0.40;;;0.40;99.90;;;;;;5257583;28;20028;-75
2021/12/21 00:48:15;;;;;;;0.60;0.60;;;0.40;99.90;;;;;;5258113;28;20044;-74
2021/12/21 00:50:49;;;;;;;4.28;1.85;;;0.30;99.90;;;;;;5224352;28;20048;-74
2021/12/21 00:53:20;;;;;;;0.40;0.40;;;0.40;99.90;;;;;;5256584;28;20036;-74
2021/12/21 00:55:53;;;;;;;0.50;0.50;;;0.30;99.90;;;;;;5255881;28;20425;-74
2021/12/21 00:58:29;;;;;;;0.50;0.50;;;0.30;99.90;;;;;;5256777;28;20035;-74
2021/12/21 01:01:05;;;;;;;0.30;0.30;;;0.30;99.90;;;;;;5256830;28;20234;-74
2021/12/21 01:03:47;;;;;;;0.52;0.52;;;0.30;99.90;;;;;;5254674;28;20370;-75
2021/12/21 01:06:39;;;;;;;0.40;0.40;;;0.30;99.90;;;;;;5227618;28;20066;-74
2021/12/21 01:09:34;;;;;;;0.88;0.88;;;0.30;99.90;;;;;;5270126;28;20028;-74
2021/12/21 01:12:16;;;;;;;0.40;0.40;;;0.30;99.90;;;;;;5247896;28;20104;-75
2021/12/21 01:17:57;;;;;;;0.50;0.50;;;0.20;99.90;;;;;;5238917;28;20067;-74
2021/12/21 01:25:53;;;;;;;0.50;0.50;;;0.30;99.90;;;;;;5246080;28;20031;-75
2021/12/21 01:28:48;;;;;;;0.55;0.55;;;0.20;99.90;;;;;;5262025;28;20473;-73
2021/12/21 01:42:49;;;;;;;0.57;0.57;;;0.30;99.90;;;;;;5244292;28;20028;-74
2021/12/21 01:51:07;;;;;;;0.40;0.40;;;0.20;99.90;;;;;;5260237;28;20032;-74
2021/12/21 01:53:45;;;;;;;0.50;0.50;;;0.20;99.90;;;;;;5243235;28;20063;-74
2021/12/21 01:56:22;;;;;;;0.50;0.50;;;0.30;99.90;;;;;;5231939;28;20107;-75
2021/12/21 01:58:53;;;;;;;0.50;0.50;;;0.30;99.90;;;;;;5255619;28;20034;-74
2021/12/21 02:01:27;;;;;;;0.40;0.40;;;0.30;99.90;;;;;;5253086;28;20076;-75
2021/12/21 02:04:01;;;;;;;0.40;0.40;;;0.20;99.90;;;;;;5243067;28;20490;-75
2021/12/21 02:06:32;;;;;;;1.23;1.13;;;0.20;99.90;;;;;;5266252;28;20120;-75
2021/12/21 02:09:05;;;;;;;0.40;0.40;;;0.20;99.90;;;;;;5224686;28;20024;-74
2021/12/21 02:11:37;;;;;;;0.60;0.60;;;0.10;99.90;;;;;;5258645;28;20044;-75
2021/12/21 02:14:17;;;;;;;0.50;0.50;;;0.00;99.90;;;;;;5223460;28;20027;-75
2021/12/21 02:17:16;;;;;;;0.60;0.60;;;0.10;99.90;;;;;;5250270;28;20099;-75
2021/12/21 02:20:24;;;;;;;0.50;0.50;;;0.20;99.90;;;;;;5258233;28;20031;-75
2021/12/21 02:23:09;;;;;;;0.53;0.53;;;0.20;99.90;;;;;;5244336;28;20036;-76
2021/12/21 02:31:16;;;;;;;0.88;0.88;;;0.10;99.90;;;;;;5270116;28;20028;-76
2021/12/21 02:33:50;;;;;;;0.40;0.40;;;0.20;99.90;;;;;;5243621;28;20429;-75
2021/12/21 02:36:21;;;;;;;0.47;0.47;;;0.20;99.90;;;;;;5259746;28;20035;-75
2021/12/21 02:38:54;;;;;;;0.60;0.60;;;0.20;99.90;;;;;;5261256;28;20036;-75
2021/12/21 02:41:33;;;;;;;0.40;0.40;;;0.10;99.90;;;;;;5263279;28;20020;-76
2021/12/21 02:44:05;;;;;;;0.70;0.70;;;0.00;99.90;;;;;;5262536;28;20031;-75
2021/12/21 02:46:39;;;;;;;0.40;0.40;;;0.00;99.90;;;;;;5244745;28;20063;-76
2021/12/21 02:49:18;;;;;;;0.50;0.50;;;0.10;99.90;;;;;;5245623;28;20040;-76
2021/12/21 02:51:53;;;;;;;0.40;0.40;;;0.10;99.90;;;;;;5262317;28;20077;-75
2021/12/21 02:54:27;;;;;;;0.47;0.47;;;0.00;99.90;;;;;;5255039;28;20032;-75
2021/12/21 02:57:00;;;;;;;0.50;0.50;;;0.00;99.90;;;;;;5250361;28;20367;-75
2021/12/21 02:59:33;;;;;;;0.40;0.40;;;0.10;99.90;;;;;;5252276;28;20095;-75
2021/12/21 03:02:08;;;;;;;0.40;0.40;;;0.10;99.90;;;;;;5261629;28;20082;-76
2021/12/21 03:04:44;;;;;;;;;;;0.10;99.90;;;;;;5253825;28;20056;-76
2021/12/21 03:09:56;;;;;;;0.53;0.53;;;0.10;99.90;;;;;;5260808;28;20337;-75
2021/12/21 03:15:37;;;;;;;0.50;0.50;;;0.10;99.90;;;;;;5240385;28;20032;-76
2021/12/21 03:18:10;;;;;;;0.95;0.95;;;0.00;99.90;;;;;;5258157;28;20040;-76
2021/12/21 03:20:43;;;;;;;0.50;0.50;;;0.00;99.90;;;;;;5262319;28;20027;-76
2021/12/21 03:23:14;;;;;;;0.55;0.55;;;0.00;99.90;;;;;;5235623;28;20036;-76
2021/12/21 03:25:48;;;;;;;0.45;0.45;;;0.10;99.90;;;;;;5248890;28;20039;-76
2021/12/21 03:28:21;;;;;;;0.70;0.70;;;0.20;99.90;;;;;;5261296;28;20455;-76
2021/12/21 03:30:55;;;;;;;0.55;0.55;;;0.10;99.90;;;;;;5255932;28;20052;-75
2021/12/21 03:33:36;;;;;;;0.50;0.50;;;0.20;99.90;;;;;;5221603;28;20370;-75
2021/12/21 03:36:09;;;;;;;0.63;0.63;;;0.20;99.90;;;;;;5239993;28;20016;-75
2021/12/21 03:38:46;;;;;;;0.40;0.40;;;0.20;99.90;;;;;;5240889;28;20539;-75
2021/12/21 03:41:20;;;;;;;0.55;0.55;;;0.10;99.90;;;;;;5242239;28;20036;-76
2021/12/21 03:43:53;;;;;;;;;;;0.00;99.90;;;;;;5241932;28;20027;-75
2021/12/21 03:46:25;;;;;;;0.43;0.43;;;0.00;99.90;;;;;;5240650;28;19992;-75
2021/12/21 03:49:26;;;;;;;0.40;0.40;;;0.00;99.90;;;;;;5235058;28;20099;-75
2021/12/21 03:51:58;;;;;;;0.40;0.40;;;0.10;99.90;;;;;;5240604;28;20028;-75
2021/12/21 03:54:34;;;;;;;0.50;0.50;;;0.10;99.90;;;;;;5261729;28;20028;-76
2021/12/21 03:57:11;;;;;;;0.60;0.60;;;0.00;99.90;;;;;;5262267;28;20054;-75
2021/12/21 03:59:49;;;;;;;0.40;0.40;;;0.00;99.90;;;;;;5261911;28;20032;-75
2021/12/21 04:02:22;;;;;;;0.50;0.50;;;0.10;99.90;;;;;;5262083;28;20032;-76
2021/12/21 04:04:56;;;;;;;0.60;0.60;;;0.10;99.90;;;;;;5258551;28;20340;-76
2021/12/21 04:07:29;;;;;;;0.60;0.60;;;0.10;99.90;;;;;;5261414;28;20035;-76
2021/12/21 04:10:04;;;;;;;0.63;0.63;;;0.00;99.90;;;;;;5260917;28;20043;-78
2021/12/21 04:12:38;;;;;;;0.60;0.60;;;0.00;99.90;;;;;;5261044;28;20268;-77
2021/12/21 04:15:10;;;;;;;0.50;0.50;;;0.00;99.90;;;;;;5269677;28;20024;-76
2021/12/21 04:17:47;;;;;;;0.40;0.40;;;0.00;99.90;;;;;;5239449;28;20064;-76
2021/12/21 04:20:24;;;;;;;0.50;0.50;;;0.00;99.90;;;;;;5239289;28;20056;-76
2021/12/21 04:22:59;;;;;;;0.50;0.50;;;0.00;99.90;;;;;;5260169;28;20032;-76
2021/12/21 04:25:34;;;;;;;0.60;0.60;;;0.00;99.90;;;;;;5262323;28;20218;-76
2021/12/21 04:28:06;;;;;;;0.55;0.55;;;0.00;99.90;;;;;;5260004;28;20111;-76
2021/12/21 04:30:40;;;;;;;0.40;0.40;;;0.00;99.90;;;;;;5252233;28;20348;-76
2021/12/21 04:33:12;;;;;;;0.38;0.38;;;0.00;99.90;;;;;;5261509;28;20327;-76
2021/12/21 04:35:45;;;;;;;0.43;0.43;;;0.00;99.90;;;;;;5243621;28;20064;-76
2021/12/21 04:38:23;;;;;;;0.57;0.57;;;-0.20;99.90;;;;;;5254624;28;20477;-76
2021/12/21 04:41:06;;;;;;;0.73;0.73;;;-0.10;99.90;;;;;;5241445;28;20040;-75
2021/12/21 04:43:40;;;;;;;0.57;0.57;;;-0.20;99.90;;;;;;5242483;28;20415;-76
2021/12/21 04:46:11;;;;;;;0.82;0.82;;;-0.30;99.90;;;;;;5236838;28;20474;-77
2021/12/21 04:48:42;;;;;;;0.50;0.50;;;-0.30;99.90;;;;;;5240765;28;20047;-77
2021/12/21 04:51:16;;;;;;;0.52;0.52;;;-0.30;99.90;;;;;;5240341;28;20463;-77
2021/12/21 04:53:54;;;;;;;0.55;0.55;;;-0.30;99.90;;;;;;5254212;28;20170;-75
2021/12/21 04:56:30;;;;;;;0.60;0.60;;;-0.30;99.90;;;;;;5261084;28;20039;-75
2021/12/21 04:59:03;;;;;;;0.50;0.50;;;-0.20;99.90;;;;;;5258047;28;20158;-75
2021/12/21 05:01:34;;;;;;;0.82;0.82;;;-0.30;99.90;;;;;;5240986;28;20024;-75
2021/12/21 05:04:07;;;;;;;0.60;0.60;;;-0.50;99.90;;;;;;5207869;28;20167;-75
2021/12/21 05:06:43;;;;;;;1.55;1.05;;;-0.70;99.90;;;;;;5215043;28;20056;-74
2021/12/21 05:09:24;;;;;;;0.57;0.57;;;-0.80;99.90;;;;;;5229786;28;20043;-74
2021/12/21 05:12:04;;;;;;;0.50;0.50;;;-0.90;99.90;;;;;;5231246;28;20040;-74
2021/12/21 05:14:40;;;;;;;0.40;0.40;;;-0.90;99.90;;;;;;5245479;28;20047;-75
2021/12/21 05:17:13;;;;;;;0.60;0.60;;;-0.80;99.90;;;;;;5260464;28;20383;-74
2021/12/21 05:19:47;;;;;;;0.57;0.57;;;-0.80;99.90;;;;;;5260953;28;20039;-74
2021/12/21 05:22:23;;;;;;;0.50;0.50;;;-0.80;99.90;;;;;;5260258;28;20048;-74
2021/12/21 05:24:55;;;;;;;0.50;0.50;;;-0.60;99.90;;;;;;5263174;28;20039;-73
2021/12/21 05:27:29;;;;;;;0.50;0.50;;;-0.60;99.90;;;;;;5263159;28;20099;-73
2021/12/21 05:30:04;;;;;;;0.50;0.50;;;-0.60;99.90;;;;;;5251555;28;20103;-74
2021/12/21 05:32:38;;;;;;;0.40;0.40;;;-0.70;99.90;;;;;;5241028;28;20093;-74
2021/12/21 05:35:13;;;;;;;0.60;0.60;;;-0.70;99.90;;;;;;5240474;28;20338;-75
2021/12/21 05:37:46;;;;;;;0.50;0.50;;;-0.60;99.90;;;;;;5239698;28;20029;-74
2021/12/21 05:40:49;;;;;;;0.40;0.40;;;-0.60;99.90;;;;;;5253737;28;20066;-74
2021/12/21 05:43:29;;;;;;;0.93;0.93;;;-0.60;99.90;;;;;;5240753;28;20028;-74
2021/12/21 05:46:04;;;;;;;0.50;0.50;;;-0.60;99.90;;;;;;5243613;28;20036;-74
2021/12/21 05:48:38;;;;;;;0.50;0.50;;;-0.50;99.90;;;;;;5259638;28;20043;-73
2021/12/21 05:51:09;;;;;;;0.60;0.60;;;-0.50;99.90;;;;;;5256176;28;20040;-74
2021/12/21 05:53:40;;;;;;;0.60;0.60;;;-0.60;99.90;;;;;;5254248;28;20476;-74
2021/12/21 05:56:11;;;;;;;0.50;0.50;;;-0.60;99.90;;;;;;5254954;28;20028;-74
2021/12/21 05:58:48;;;;;;;0.43;0.43;;;-0.60;99.90;;;;;;5256773;28;20052;-74
2021/12/21 06:01:22;;;;;;;0.50;0.50;;;-0.60;99.90;;;;;;5250304;28;20278;-74
2021/12/21 06:04:00;;;;;;;0.47;0.47;;;-0.50;99.90;;;;;;5242922;28;20059;-73
2021/12/21 06:06:32;;;;;;;0.40;0.40;;;-0.60;99.90;;;;;;5225591;28;20532;-73
2021/12/21 06:09:09;;;;;;;1.80;0.87;;;-0.60;99.90;;;;;;5238413;28;20081;-74
2021/12/21 06:11:55;;;;;;;0.60;0.60;;;-0.70;99.90;;;;;;5250856;28;20047;-73
2021/12/21 06:25:51;;;;;;;0.47;0.47;;;-1.10;99.90;;;;;;5260434;28;20015;-72
2021/12/21 06:28:24;;;;;;;0.40;0.40;;;-1.20;99.90;;;;;;5261121;28;20028;-73
2021/12/21 06:31:01;;;;;;;0.47;0.47;;;-1.10;99.90;;;;;;5260463;28;20384;-73
2021/12/21 06:33:35;;;;;;;0.43;0.43;;;-1.20;99.90;;;;;;5261491;28;20466;-73
2021/12/21 06:36:07;;;;;;;0.38;0.38;;;-1.10;99.90;;;;;;5261909;28;20035;-73
2021/12/21 06:38:41;;;;;;;0.50;0.50;;;-1.20;99.90;;;;;;5262048;28;20047;-73
2021/12/21 06:41:12;;;;;;;0.47;0.47;;;-1.30;99.90;;;;;;5260230;28;20470;-74
2021/12/21 06:43:43;;;;;;;0.40;0.40;;;-1.30;99.90;;;;;;5262082;28;20039;-73
2021/12/21 06:51:52;;;;;;;0.40;0.40;;;-1.60;99.90;;;;;;5246082;28;20043;-74
2021/12/21 06:54:25;;;;;;;0.50;0.50;;;-1.50;99.90;;;;;;5261065;28;20044;-72
2021/12/21 06:57:01;;;;;;;0.65;0.65;;;-1.50;99.90;;;;;;5260129;28;20103;-73
2021/12/21 06:59:37;;;;;;;0.50;0.50;;;-1.40;99.90;;;;;;5261653;28;20480;-72
2021/12/21 07:02:11;;;;;;;0.50;0.50;;;-1.40;99.90;;;;;;5260918;28;20409;-74
2021/12/21 07:04:45;;;;;;;0.60;0.60;;;-1.40;99.90;;;;;;5256127;28;20048;-73
2021/12/21 07:07:18;;;;;;;0.60;0.60;;;-1.40;99.90;;;;;;5259869;28;20027;-73
2021/12/21 07:09:59;;;;;;;0.40;0.40;;;-1.30;99.90;;;;;;5276724;28;20298;-72
2021/12/21 07:18:33;;;;;;;0.40;0.40;;;-1.20;99.90;;;;;;5254027;28;20048;-73
2021/12/21 07:21:00;;;;;;;0.40;0.40;;;-1.10;99.90;;;;;;5239374;28;20692;-73
2021/12/21 07:23:49;;;;;;;0.43;0.43;;;-1.10;99.90;;;;;;5259878;28;20031;-73
2021/12/21 07:26:20;;;;;;;0.40;0.40;;;-1.00;99.90;;;;;;5255295;28;20195;-74
2021/12/21 07:28:54;;;;;;;0.70;0.70;;;-0.90;99.90;;;;;;5250618;28;20032;-73
2021/12/21 07:31:28;;;;;;;0.50;0.50;;;-0.80;99.90;;;;;;5240378;28;20609;-72
2021/12/21 07:34:07;;;;;;;0.40;0.40;;;-0.70;99.90;;;;;;5240444;28;20028;-74
2021/12/21 07:36:43;;;;;;;0.40;0.40;;;-0.60;99.90;;;;;;5240104;28;20070;-75
2021/12/21 07:39:18;;;;;;;0.50;0.50;;;-0.50;99.90;;;;;;5245889;28;20069;-74
2021/12/21 07:41:50;;;;;;;0.50;0.50;;;-0.40;99.90;;;;;;5246529;28;20036;-74
2021/12/21 07:44:23;;;;;;;0.57;0.57;;;-0.40;99.90;;;;;;5252788;28;20039;-74
2021/12/21 07:46:56;;;;;;;0.50;0.50;;;-0.10;99.90;;;;;;5240400;28;20090;-74
2021/12/21 07:49:32;;;;;;;0.80;0.80;;;0.00;99.90;;;;;;5240139;28;20334;-75
2021/12/21 07:52:10;;;;;;;0.50;0.50;;;0.10;99.90;;;;;;5247520;28;20132;-74
2021/12/21 07:54:44;;;;;;;0.77;0.77;;;0.20;99.90;;;;;;5221133;28;20666;-74
2021/12/21 07:57:19;;;;;;;0.77;0.77;;;0.20;99.90;;;;;;5245965;28;20107;-73
2021/12/21 07:59:52;;;;;;;0.88;0.88;;;0.40;99.90;;;;;;5259638;28;20036;-74
2021/12/21 08:02:27;;;;;;;0.50;0.50;;;0.50;99.90;;;;;;5250603;28;20067;-73
2021/12/21 08:05:04;;;;;;;0.52;0.52;;;0.70;99.90;;;;;;5218060;28;20459;-74
2021/12/21 08:07:46;;;;;;;0.50;0.50;;;0.80;99.90;;;;;;5265914;28;20086;-73
2021/12/21 08:10:41;;;;;;;0.40;0.40;;;1.00;99.90;;;;;;5259644;28;20028;-73
2021/12/21 08:13:15;;;;;;;;;;;1.10;99.90;;;;;;5250727;28;20024;-74
2021/12/21 08:15:54;;;;;;;0.40;0.40;;;1.20;99.90;;;;;;5269263;28;20222;-74
2021/12/21 08:18:28;;;;;;;0.70;0.70;;;1.30;99.90;;;;;;5239019;28;20037;-72
2021/12/21 08:20:59;;;;;;;1.40;1.38;;;1.40;99.90;;;;;;5238533;28;20082;-73
2021/12/21 08:23:34;;;;;;;0.60;0.60;;;1.50;99.90;;;;;;5254565;28;20256;-72
2021/12/21 08:26:07;;;;;;;0.52;0.52;;;1.50;99.90;;;;;;5259695;28;20058;-73
2021/12/21 08:28:38;;;;;;;0.43;0.43;;;1.70;99.90;;;;;;5262335;28;20077;-73
2021/12/21 08:31:12;;;;;;;0.50;0.50;;;2.00;99.90;;;;;;5263154;28;20051;-75
2021/12/21 08:33:51;;;;;;;0.40;0.40;;;2.00;99.90;;;;;;5264483;28;20035;-74
2021/12/21 08:36:25;;;;;;;0.77;0.77;;;1.80;99.90;;;;;;5264315;28;20427;-73
2021/12/21 08:39:01;;;;;;;0.70;0.70;;;1.80;99.90;;;;;;5229598;28;20264;-74
2021/12/21 08:41:42;;;;;;;0.68;0.68;;;1.80;99.90;;;;;;5262372;28;20040;-74
2021/12/21 08:44:21;;;;;;;0.60;0.60;;;1.90;99.90;;;;;;5258402;28;20140;-74
2021/12/21 08:46:57;;;;;;;0.40;0.40;;;1.90;99.90;;;;;;5258463;28;20095;-73
2021/12/21 08:49:30;;;;;;;0.63;0.63;;;1.90;99.90;;;;;;5259976;28;20086;-74
2021/12/21 08:52:04;;;;;;;0.35;0.35;;;2.00;99.90;;;;;;5263005;28;20514;-74
2021/12/21 08:54:36;;;;;;;0.50;0.50;;;1.90;99.90;;;;;;5259844;28;20835;-74
2021/12/21 08:57:07;;;;;;;0.82;0.82;;;2.00;99.90;;;;;;5261657;28;20181;-74
2021/12/21 08:59:38;;;;;;;0.70;0.70;;;2.00;99.90;;;;;;5257655;28;20032;-74
2021/12/21 09:02:14;;;;;;;0.50;0.50;;;2.10;99.90;;;;;;5255886;28;20070;-74
2021/12/21 09:04:48;;;;;;;0.40;0.40;;;2.20;99.90;;;;;;5256104;28;20052;-75
2021/12/21 09:07:18;;;;;;;0.52;0.52;;;2.30;99.90;;;;;;5243180;28;20545;-75
2021/12/21 09:09:49;;;;;;;0.90;0.90;;;2.50;99.90;;;;;;5261080;28;20054;-75
2021/12/21 09:12:23;;;;;;;0.40;0.40;;;2.60;99.90;;;;;;5241467;28;20070;-75
2021/12/21 09:15:00;;;;;;;0.90;0.90;;;2.70;99.90;;;;;;5260739;28;20020;-75
2021/12/21 09:17:31;;;;;;;0.55;0.55;;;2.80;99.90;;;;;;5261167;28;20020;-75
2021/12/21 09:20:06;;;;;;;0.90;0.90;;;2.90;99.90;;;;;;5241696;28;20328;-74
2021/12/21 09:22:42;;;;;;;0.75;0.75;;;3.10;99.90;;;;;;5241721;28;20060;-75
2021/12/21 09:25:19;;;;;;;0.82;0.82;;;3.30;99.90;;;;;;5255812;28;20035;-75
2021/12/21 09:27:55;;;;;;;0.55;0.55;;;3.00;99.90;;;;;;5261553;28;20036;-76
2021/12/21 09:30:29;;;;;;;0.55;0.55;;;3.00;99.90;;;;;;5261562;28;20024;-74
2021/12/21 09:33:06;;;;;;;0.60;0.60;;;3.10;99.90;;;;;;5261596;28;20085;-75
2021/12/21 09:35:39;;;;;;;0.75;0.75;;;3.00;99.90;;;;;;5260645;28;20039;-75
2021/12/21 09:38:16;;;;;;;0.90;0.90;;;3.10;99.90;;;;;;5257126;28;20035;-74
2021/12/21 09:40:54;;;;;;;0.47;0.47;;;3.10;99.90;;;;;;5243468;28;20290;-75
2021/12/21 09:43:26;;;;;;;0.50;0.50;;;3.00;99.90;;;;;;5262925;28;20099;-75
2021/12/21 09:45:57;;;;;;;0.70;0.70;;;2.90;99.90;;;;;;5242591;28;20067;-75
2021/12/21 09:48:31;;;;;;;0.63;0.63;;;2.70;99.90;;;;;;5247907;28;20513;-75
2021/12/21 09:51:08;;;;;;;1.00;1.00;;;2.70;99.90;;;;;;5230174;28;20028;-76
2021/12/21 09:53:38;;;;;;;0.60;0.60;;;2.90;99.90;;;;;;5239315;28;20029;-76
2021/12/21 09:56:12;;;;;;;0.60;0.60;;;2.80;99.90;;;;;;5202706;28;20040;-77
2021/12/21 09:58:44;;;;;;;0.90;0.90;;;2.80;99.90;;;;;;5250824;28;20452;-77
2021/12/21 10:01:17;;;;;;;0.60;0.60;;;3.10;99.90;;;;;;5260519;28;20050;-77
2021/12/21 10:03:53;;;;;;;0.50;0.50;;;3.30;99.90;;;;;;5226629;28;20103;-77
2021/12/21 10:06:27;;;;;;;0.70;0.70;;;3.30;99.90;;;;;;5248941;28;20076;-78
2021/12/21 10:09:06;;;;;;;0.60;0.60;;;3.70;99.90;;;;;;5253527;28;20107;-78
2021/12/21 10:11:53;;;;;;;0.80;0.80;;;3.60;99.90;;;;;;5242245;28;20069;-78
2021/12/21 10:14:28;;;;;;;0.80;0.80;;;4.10;99.90;;;;;;5263696;28;20023;-79
2021/12/21 10:17:08;;;;;;;0.85;0.85;;;4.80;99.90;;;;;;5261470;28;20036;-79
2021/12/21 10:19:46;;;;;;;0.52;0.52;;;4.50;99.90;;;;;;5249429;28;20040;-80
2021/12/21 10:22:22;;;;;;;0.40;0.40;;;5.10;99.90;;;;;;5262623;28;20048;-79
2021/12/21 10:24:55;;;;;;;0.50;0.50;;;4.90;99.90;;;;;;5261635;28;20039;-78
2021/12/21 10:27:28;;;;;;;0.40;0.40;;;5.40;99.90;;;;;;5259954;28;20607;-78
2021/12/21 10:30:02;;;;;;;0.60;0.60;;;5.30;99.90;;;;;;5234253;28;20032;-77
2021/12/21 10:32:33;;;;;;;0.80;0.80;;;5.90;99.90;;;;;;5259814;28;20090;-78
2021/12/21 10:35:14;;;;;;;0.50;0.50;;;6.20;99.90;;;;;;5260583;28;20465;-78
2021/12/21 10:37:53;;;;;;;0.45;0.45;;;6.30;99.90;;;;;;5254115;28;20103;-77
2021/12/21 10:40:28;;;;;;;1.25;1.25;;;6.60;99.90;;;;;;5243170;28;20028;-77
2021/12/21 10:43:06;;;;;;;0.70;0.70;;;5.80;99.90;;;;;;5259661;28;20049;-78
2021/12/21 10:45:47;;;;;;;0.65;0.65;;;5.30;99.90;;;;;;5259920;28;20044;-78
2021/12/21 10:48:19;;;;;;;0.60;0.60;;;5.20;99.90;;;;;;5256222;28;20048;-77
2021/12/21 10:50:52;;;;;;;0.50;0.50;;;5.60;99.90;;;;;;5258039;28;20028;-77
2021/12/21 10:53:31;;;;;;;0.45;0.45;;;5.40;99.90;;;;;;5259661;28;20024;-76
2021/12/21 10:56:05;;;;;;;0.50;0.50;;;5.60;99.90;;;;;;5256423;28;20077;-76
2021/12/21 10:58:44;;;;;;;0.60;0.60;;;6.10;99.90;;;;;;5248766;28;20607;-75
2021/12/21 11:01:28;;;;;;;0.60;0.60;;;6.50;99.90;;;;;;5240633;28;20375;-75
2021/12/21 11:04:04;;;;;;;0.70;0.70;;;6.00;99.90;;;;;;5259757;28;20363;-75
2021/12/21 11:06:38;;;;;;;0.70;0.70;;;4.90;99.90;;;;;;5241875;28;20074;-75
2021/12/21 11:09:11;;;;;;;;;;;4.10;99.90;;;;;;5270800;28;20024;-74
2021/12/21 11:11:49;;;;;;;0.52;0.52;;;3.50;99.90;;;;;;5259376;28;20342;-74
2021/12/21 11:14:25;;;;;;;0.65;0.65;;;3.30;99.90;;;;;;5226647;28;20026;-75
2021/12/21 11:17:00;;;;;;;0.50;0.50;;;3.30;99.90;;;;;;5258502;28;20325;-74
2021/12/21 11:19:31;;;;;;;;;;;3.10;99.90;;;;;;5258888;28;20463;-75
2021/12/21 11:22:07;;;;;;;0.50;0.50;;;3.50;99.90;;;;;;5261293;28;19944;-75
2021/12/21 11:24:47;;;;;;;0.50;0.50;;;4.30;99.90;;;;;;5251699;28;20041;-76
2021/12/21 11:27:21;;;;;;;0.40;0.40;;;6.20;99.90;;;;;;5254241;28;20464;-74
2021/12/21 11:29:57;;;;;;;0.80;0.80;;;7.00;99.90;;;;;;5236249;28;20032;-75
2021/12/21 11:32:31;;;;;;;0.80;0.80;;;8.20;99.90;;;;;;5249612;28;20248;-74
2021/12/21 11:37:53;;;;;;;0.68;0.68;;;9.70;99.90;;;;;;5257222;28;20111;-74
2021/12/21 11:40:33;;;;;;;0.73;0.73;;;8.70;99.90;;;;;;5258121;28;20133;-76
2021/12/21 11:43:27;;;;;;;0.77;0.77;;;8.70;99.90;;;;;;5233269;28;20084;-74
2021/12/21 11:46:07;;;;;;;0.57;0.57;;;8.80;99.90;;;;;;5250558;28;20267;-73
2021/12/21 11:48:53;;;;;;;0.90;0.90;;;8.50;99.90;;;;;;5240128;28;20060;-73
2021/12/21 11:51:27;;;;;;;0.80;0.80;;;8.80;99.90;;;;;;5234669;28;20077;-73
2021/12/21 11:54:00;;;;;;;0.93;0.93;;;8.00;99.90;;;;;;5254698;28;20510;-73
2021/12/21 11:56:35;;;;;;;0.70;0.70;;;7.80;99.90;;;;;;5250742;28;20032;-73
2021/12/21 11:59:06;;;;;;;0.75;0.75;;;8.20;99.90;;;;;;5251782;28;20146;-73
2021/12/21 12:01:46;;;;;;;0.80;0.80;;;7.20;99.90;;;;;;5256203;28;20050;-73
2021/12/21 12:04:22;;;;;;;0.82;0.82;;;7.50;99.90;;;;;;5248991;28;20035;-73
2021/12/21 12:06:57;;;;;;;0.75;0.75;;;8.50;99.90;;;;;;5260589;28;20504;-72
2021/12/21 12:09:37;;;;;;;0.82;0.82;;;9.20;99.90;;;;;;5257955;28;20032;-73
2021/12/21 12:12:15;;;;;;;0.70;0.70;;;9.80;99.90;;;;;;5255821;28;20047;-73
2021/12/21 12:15:01;;;;;;;0.82;0.82;;;10.20;99.90;;;;;;5247644;28;20039;-75
2021/12/21 12:17:33;;;;;;;0.90;0.90;;;10.40;99.90;;;;;;5241033;28;20066;-73
2021/12/21 12:20:10;;;;;;;1.15;1.15;;;9.40;99.90;;;;;;5240730;28;20038;-75
2021/12/21 12:22:46;;;;;;;0.70;0.70;;;9.50;99.90;;;;;;5256473;28;20059;-74
2021/12/21 12:25:21;;;;;;;0.90;0.90;;;9.50;99.90;;;;;;5237282;28;20118;-75
2021/12/21 12:27:56;;;;;;;0.70;0.70;;;9.80;99.90;;;;;;5237123;28;20028;-74
2021/12/21 12:30:35;;;;;;;0.50;0.50;;;8.80;99.90;;;;;;5219345;28;20081;-74
2021/12/21 12:33:07;;;;;;;0.73;0.73;;;7.90;99.90;;;;;;5243472;28;20039;-73
2021/12/21 12:35:42;;;;;;;0.68;0.68;;;7.80;99.90;;;;;;5256322;28;20030;-72
2021/12/21 12:38:15;;;;;;;0.70;0.70;;;8.90;99.90;;;;;;5256068;28;20039;-75
2021/12/21 12:41:05;;;;;;;1.00;1.00;;;9.30;99.90;;;;;;5255428;28;20996;-74
2021/12/21 12:43:44;;;;;;;0.82;0.82;;;9.50;99.90;;;;;;5237613;28;20092;-74
2021/12/21 12:46:32;;;;;;;0.50;0.50;;;9.10;99.90;;;;;;5240577;28;20067;-75
2021/12/21 12:49:06;;;;;;;0.70;0.70;;;8.40;99.90;;;;;;5243633;28;20028;-75
2021/12/21 12:51:38;;;;;;;0.60;0.60;;;8.40;99.90;;;;;;5252664;28;20020;-73
2021/12/21 12:54:18;;;;;;;0.47;0.47;;;8.40;99.90;;;;;;5257802;28;20074;-73
2021/12/21 12:56:49;;;;;;;0.77;0.77;;;7.20;99.90;;;;;;5251802;28;20036;-73
2021/12/21 12:59:26;;;;;;;0.65;0.65;;;6.70;99.90;;;;;;5251975;28;20027;-75
2021/12/21 13:02:10;;;;;;;0.60;0.60;;;5.90;99.90;;;;;;5245359;28;20031;-73
2021/12/21 13:04:43;;;;;;;0.60;0.60;;;5.10;99.90;;;;;;5225768;28;20048;-74
2021/12/21 13:07:29;;;;;;;0.60;0.60;;;4.60;99.90;;;;;;5242812;28;20113;-73
2021/12/21 13:10:10;;;;;;;0.73;0.73;;;4.30;99.90;;;;;;5224256;28;20043;-74
2021/12/21 13:12:41;;;;;;;0.60;0.60;;;4.10;99.90;;;;;;5237585;28;20047;-73
2021/12/21 13:15:12;;;;;;;0.60;0.60;;;4.00;99.90;;;;;;5251881;28;20055;-74
2021/12/21 13:17:46;;;;;;;0.50;0.50;;;4.20;99.90;;;;;;5263883;28;20457;-74
2021/12/21 13:20:27;;;;;;;0.60;0.60;;;4.40;99.90;;;;;;5245462;28;20514;-73
2021/12/21 13:23:19;;;;;;;0.60;0.60;;;4.50;99.90;;;;;;5253477;28;20056;-73
2021/12/21 13:26:02;;;;;;;0.50;0.50;;;5.40;99.90;;;;;;5245938;28;20025;-74
2021/12/21 13:28:49;;;;;;;0.30;0.30;;;5.50;99.90;;;;;;5276628;28;20040;-75
2021/12/21 13:31:23;;;;;;;0.50;0.50;;;6.10;99.90;;;;;;5251098;28;20059;-75
2021/12/21 13:33:59;;;;;;;0.60;0.60;;;6.60;99.90;;;;;;5260349;28;20111;-75
2021/12/21 13:36:45;;;;;;;1.58;1.48;;;7.50;99.90;;;;;;5261414;28;20051;-74
2021/12/21 13:39:37;;;;;;;0.65;0.65;;;8.90;99.90;;;;;;5224470;28;20104;-74
2021/12/21 13:42:17;;;;;;;0.57;0.57;;;9.90;99.90;;;;;;5259335;28;20233;-75
2021/12/21 13:44:57;;;;;;;0.70;0.70;;;10.50;99.90;;;;;;5251154;28;20044;-74
2021/12/21 13:47:37;;;;;;;0.60;0.60;;;10.60;99.90;;;;;;5241441;28;20048;-76
2021/12/21 13:50:23;;;;;;;0.60;0.60;;;9.90;99.90;;;;;;5253676;28;20032;-74
2021/12/21 13:52:59;;;;;;;1.23;1.13;;;8.50;99.90;;;;;;5261834;28;20024;-74
2021/12/21 13:55:42;;;;;;;0.57;0.57;;;7.20;99.90;;;;;;5261274;28;20252;-74
2021/12/21 13:58:18;;;;;;;0.77;0.77;;;6.60;99.90;;;;;;5245265;28;20038;-74
2021/12/21 14:00:57;;;;;;;0.45;0.45;;;5.60;99.90;;;;;;5260830;28;20334;-74
2021/12/21 14:03:34;;;;;;;0.50;0.50;;;4.90;99.90;;;;;;5259293;28;20099;-75
2021/12/21 14:06:21;;;;;;;0.70;0.70;;;4.70;99.90;;;;;;5254297;28;20477;-74
2021/12/21 14:09:06;;;;;;;1.13;1.13;;;4.40;99.90;;;;;;5255560;28;20689;-74
2021/12/21 14:11:40;;;;;;;0.60;0.60;;;4.30;99.90;;;;;;5248735;28;20028;-74
2021/12/21 14:14:21;;;;;;;0.70;0.70;;;4.00;99.90;;;;;;5242956;28;20409;-73
2021/12/21 14:16:54;;;;;;;0.60;0.60;;;3.70;99.90;;;;;;5258214;28;20032;-74
2021/12/21 14:19:28;;;;;;;0.40;0.40;;;3.50;99.90;;;;;;5230555;28;20427;-73
2021/12/21 14:22:04;;;;;;;0.73;0.73;;;3.30;99.90;;;;;;5250944;28;20029;-73
2021/12/21 14:24:35;;;;;;;0.70;0.70;;;3.20;99.90;;;;;;5248679;28;20036;-75
2021/12/21 14:27:12;;;;;;;0.50;0.50;;;3.00;99.90;;;;;;5258940;28;20036;-73
2021/12/21 14:29:47;;;;;;;0.60;0.60;;;2.80;99.90;;;;;;5255910;28;20428;-73
2021/12/21 14:32:42;;;;;;;0.70;0.70;;;2.70;99.90;;;;;;5249217;28;20469;-73
2021/12/21 14:35:13;;;;;;;0.70;0.70;;;2.60;99.90;;;;;;5255640;28;20567;-73
2021/12/21 14:37:44;;;;;;;0.50;0.50;;;2.50;99.90;;;;;;5244029;28;21175;-74
2021/12/21 14:40:18;;;;;;;0.60;0.60;;;2.40;99.90;;;;;;5241524;28;20351;-74
2021/12/21 14:42:55;;;;;;;0.52;0.52;;;2.40;99.90;;;;;;5256268;28;20039;-73
2021/12/21 14:45:32;;;;;;;0.50;0.50;;;2.30;99.90;;;;;;5224052;28;20044;-74
2021/12/21 14:48:16;;;;;;;0.43;0.43;;;2.20;99.90;;;;;;5257372;28;20503;-75
2021/12/21 14:51:07;;;;;;;0.60;0.60;;;2.20;99.90;;;;;;5260796;28;20028;-74
2021/12/21 14:53:47;;;;;;;0.73;0.73;;;2.10;99.90;;;;;;5249727;28;20353;-73